createdAt,value
2023-03-22T00:02:38.991Z,59.08
2023-03-22T00:05:40.624Z,59.22
2023-03-22T00:08:42.819Z,58.94
2023-03-22T00:11:44.298Z,58.87
2023-03-22T00:14:46.468Z,59.11
2023-03-22T00:17:50.200Z,59.07
2023-03-22T00:20:54.265Z,59.12
2023-03-22T00:23:55.821Z,59.18
2023-03-22T00:26:58.543Z,58.98
2023-03-22T00:30:00.200Z,59.00
2023-03-22T00:33:01.772Z,58.94
2023-03-22T00:36:06.746Z,59.08
2023-03-22T00:39:08.665Z,58.92
2023-03-22T00:42:10.767Z,58.95
2023-03-22T00:45:13.219Z,58.95
2023-03-22T00:48:14.873Z,58.93
2023-03-22T00:51:16.868Z,58.93
2023-03-22T00:54:18.871Z,59.05
2023-03-22T00:57:20.592Z,59.02
2023-03-22T01:00:22.376Z,59.03
2023-03-22T01:03:24.648Z,58.94
2023-03-22T01:06:27.138Z,59.09
2023-03-22T01:09:30.891Z,58.99
2023-03-22T01:12:32.385Z,59.03
2023-03-22T01:15:34.242Z,58.95
2023-03-22T01:18:36.369Z,58.96
2023-03-22T01:21:37.999Z,59.12
2023-03-22T01:24:40.035Z,58.90
2023-03-22T01:27:41.567Z,58.88
2023-03-22T01:30:43.282Z,58.94
2023-03-22T01:33:45.008Z,58.86
2023-03-22T01:36:46.516Z,58.89
2023-03-22T01:39:48.075Z,58.96
2023-03-22T01:42:53.062Z,59.09
2023-03-22T01:45:56.429Z,59.00
2023-03-22T01:49:04.927Z,59.19
2023-03-22T01:52:12.447Z,59.01
2023-03-22T01:55:34.860Z,59.06
2023-03-22T01:58:46.783Z,58.97
2023-03-22T02:01:52.546Z,59.01
2023-03-22T02:04:57.972Z,59.01
2023-03-22T02:08:03.047Z,58.89
2023-03-22T02:11:17.529Z,58.97
2023-03-22T02:14:33.184Z,58.97
2023-03-22T02:18:06.669Z,59.07
2023-03-22T02:21:14.860Z,59.08
2023-03-22T02:24:55.427Z,59.11
2023-03-22T02:28:18.741Z,59.02
2023-03-22T02:31:40.670Z,58.93
2023-03-22T02:35:17.014Z,59.03
2023-03-22T02:38:45.553Z,59.02
2023-03-22T02:42:21.569Z,59.01
2023-03-22T02:46:18.319Z,58.97
2023-03-22T02:49:19.829Z,59.03
2023-03-22T02:52:40.521Z,59.04
2023-03-22T02:55:51.207Z,58.97
2023-03-22T02:58:59.584Z,59.05
2023-03-22T03:02:03.739Z,59.10
2023-03-22T03:05:05.765Z,59.15
2023-03-22T03:08:12.267Z,59.17
2023-03-22T03:11:15.607Z,59.15
2023-03-22T03:14:26.379Z,59.17
2023-03-22T03:17:45.045Z,59.01
2023-03-22T03:21:02.245Z,59.10
2023-03-22T03:24:22.781Z,59.11
2023-03-22T03:27:33.302Z,59.00
2023-03-22T03:30:43.199Z,59.10
2023-03-22T03:33:56.026Z,59.06
2023-03-22T03:37:04.913Z,58.97
2023-03-22T03:40:12.744Z,59.16
2023-03-22T03:43:15.940Z,58.92
2023-03-22T03:46:17.621Z,59.05
2023-03-22T03:49:21.939Z,59.26
2023-03-22T03:52:26.109Z,59.15
2023-03-22T03:55:28.860Z,59.07
2023-03-22T03:58:30.631Z,58.95
2023-03-22T04:01:32.217Z,59.21
2023-03-22T04:04:44.274Z,59.25
2023-03-22T04:07:45.987Z,59.22
2023-03-22T04:10:51.819Z,59.38
2023-03-22T04:13:54.824Z,59.17
2023-03-22T04:16:58.158Z,59.36
2023-03-22T04:20:05.370Z,59.46
2023-03-22T04:23:10.953Z,59.49
2023-03-22T04:26:13.423Z,59.72
2023-03-22T04:29:26.682Z,59.25
2023-03-22T04:32:33.963Z,59.68
2023-03-22T04:35:35.627Z,59.72
2023-03-22T04:38:39.396Z,59.91
2023-03-22T04:41:43.691Z,59.61
2023-03-22T04:44:45.584Z,59.80
2023-03-22T04:47:47.686Z,59.53
2023-03-22T04:50:53.216Z,59.81
2023-03-22T04:53:58.466Z,59.66
2023-03-22T04:57:00.939Z,59.56
2023-03-22T05:00:08.397Z,59.65
2023-03-22T05:03:10.352Z,59.56
2023-03-22T05:06:15.867Z,59.61
2023-03-22T05:09:29.937Z,59.49
2023-03-22T05:12:32.561Z,59.46
2023-03-22T05:15:49.502Z,59.52
2023-03-22T05:18:54.424Z,59.21
2023-03-22T05:21:58.244Z,59.32
2023-03-22T05:25:11.608Z,59.24
2023-03-22T05:28:22.194Z,59.10
2023-03-22T05:31:34.423Z,59.17
2023-03-22T05:34:37.225Z,59.16
2023-03-22T05:37:58.901Z,59.05
2023-03-22T05:41:03.249Z,59.18
2023-03-22T05:44:07.408Z,58.94
2023-03-22T05:47:12.374Z,59.13
2023-03-22T05:50:24.183Z,59.18
2023-03-22T05:53:26.064Z,59.14
2023-03-22T05:56:35.172Z,59.19
2023-03-22T05:59:41.182Z,59.35
2023-03-22T06:02:48.530Z,59.57
2023-03-22T06:05:50.850Z,60.10
2023-03-22T06:09:06.979Z,59.77
2023-03-22T06:12:17.068Z,60.02
2023-03-22T06:15:23.579Z,60.21
2023-03-22T06:18:33.967Z,60.19
2023-03-22T06:21:43.721Z,60.10
2023-03-22T06:24:50.829Z,60.37
2023-03-22T06:28:01.849Z,60.19
2023-03-22T06:31:08.624Z,60.22
2023-03-22T06:34:36.276Z,60.26
2023-03-22T06:37:37.830Z,60.40
2023-03-22T06:40:39.904Z,60.16
2023-03-22T06:43:41.643Z,60.13
2023-03-22T06:46:57.895Z,60.22
2023-03-22T06:50:22.676Z,60.07
2023-03-22T06:53:35.490Z,60.21
2023-03-22T06:56:38.271Z,60.05
2023-03-22T06:59:40.681Z,59.97
2023-03-22T07:02:42.151Z,59.88
2023-03-22T07:06:08.449Z,59.70
2023-03-22T07:09:12.797Z,59.84
2023-03-22T07:12:14.487Z,59.75
2023-03-22T07:15:17.450Z,59.59
2023-03-22T07:18:45.069Z,59.70
2023-03-22T07:21:46.684Z,59.55
2023-03-22T07:24:56.933Z,59.50
2023-03-22T07:28:01.196Z,59.57
2023-03-22T07:31:06.926Z,59.50
2023-03-22T07:34:20.829Z,59.54
2023-03-22T07:37:35.739Z,59.39
2023-03-22T07:40:41.996Z,59.48
2023-03-22T07:43:55.237Z,59.20
2023-03-22T07:46:58.461Z,59.42
2023-03-22T07:50:06.799Z,59.25
2023-03-22T07:53:09.417Z,59.27
2023-03-22T07:56:10.975Z,59.36
2023-03-22T07:59:13.358Z,59.41
2023-03-22T08:02:16.021Z,59.52
2023-03-22T08:05:22.592Z,59.59
2023-03-22T08:08:31.311Z,59.71
2023-03-22T08:11:33.478Z,59.79
2023-03-22T08:14:37.114Z,59.93
2023-03-22T08:17:42.965Z,60.13
2023-03-22T08:20:58.739Z,60.09
2023-03-22T08:24:03.926Z,60.29
2023-03-22T08:27:34.477Z,60.12
2023-03-22T08:30:36.519Z,60.19
2023-03-22T08:33:38.583Z,60.24
2023-03-22T08:36:40.846Z,60.19
2023-03-22T08:39:43.747Z,60.15
2023-03-22T08:43:11.253Z,60.13
2023-03-22T08:46:12.984Z,60.12
2023-03-22T08:49:16.612Z,60.17
2023-03-22T08:52:27.020Z,60.18
2023-03-22T08:55:37.453Z,60.19
2023-03-22T08:58:47.692Z,60.34
2023-03-22T09:02:01.975Z,60.25
2023-03-22T09:05:04.158Z,60.38
2023-03-22T09:08:06.901Z,60.12
2023-03-22T09:11:17.912Z,60.17
2023-03-22T09:14:21.298Z,60.23
2023-03-22T09:17:23.385Z,60.11
2023-03-22T09:20:25.880Z,60.55
2023-03-22T09:23:28.961Z,60.16
2023-03-22T09:26:30.597Z,60.18
2023-03-22T09:29:32.428Z,60.27
2023-03-22T09:32:40.264Z,60.24
2023-03-22T09:35:43.216Z,60.29
2023-03-22T09:38:48.096Z,60.30
2023-03-22T09:41:54.903Z,60.15
2023-03-22T09:44:57.977Z,60.22
2023-03-22T09:48:06.934Z,60.21
2023-03-22T09:51:28.836Z,60.16
2023-03-22T09:54:37.428Z,60.25
2023-03-22T09:57:39.669Z,60.25
2023-03-22T10:01:08.206Z,60.30
2023-03-22T10:04:12.367Z,60.27
2023-03-22T10:07:22.575Z,60.33
2023-03-22T10:10:25.129Z,60.40
2023-03-22T10:13:58.925Z,60.39
2023-03-22T10:17:05.674Z,60.42
2023-03-22T10:20:18.220Z,60.37
2023-03-22T10:23:50.801Z,60.58
2023-03-22T10:26:53.317Z,60.45
2023-03-22T10:30:10.157Z,60.49
2023-03-22T10:33:22.544Z,60.47
2023-03-22T10:36:30.972Z,60.59
2023-03-22T10:39:46.366Z,60.40
2023-03-22T10:42:54.501Z,60.56
2023-03-22T10:45:58.153Z,60.03
2023-03-22T10:49:01.462Z,59.73
2023-03-22T10:52:21.246Z,59.08
2023-03-22T10:55:24.297Z,58.70
2023-03-22T10:58:34.087Z,57.82
2023-03-22T11:01:43.841Z,57.04
2023-03-22T11:04:53.837Z,56.65
2023-03-22T11:07:58.351Z,56.22
2023-03-22T11:11:00.275Z,55.93
2023-03-22T11:14:07.208Z,54.65
2023-03-22T11:17:14.029Z,54.40
2023-03-22T11:20:17.876Z,54.93
2023-03-22T11:23:21.552Z,54.35
2023-03-22T11:26:35.672Z,54.25
2023-03-22T11:29:49.270Z,54.12
2023-03-22T11:33:15.558Z,54.51
2023-03-22T11:36:19.042Z,54.93
2023-03-22T11:39:22.194Z,55.36
2023-03-22T11:42:23.729Z,55.64
2023-03-22T11:45:30.908Z,56.18
2023-03-22T11:48:34.618Z,56.13
2023-03-22T11:51:38.968Z,56.40
2023-03-22T11:54:42.290Z,56.51
2023-03-22T11:57:44.013Z,56.90
2023-03-22T12:00:46.469Z,57.06
2023-03-22T12:03:54.511Z,57.03
2023-03-22T12:06:59.802Z,57.23
2023-03-22T12:10:10.842Z,57.36
2023-03-22T12:13:21.292Z,57.47
2023-03-22T12:16:28.147Z,57.57
2023-03-22T12:19:36.925Z,57.75
2023-03-22T12:22:43.189Z,57.67
2023-03-22T12:25:51.299Z,57.71
2023-03-22T12:29:01.415Z,57.94
2023-03-22T12:32:09.736Z,57.79
2023-03-22T12:35:24.034Z,57.93
2023-03-22T12:38:42.994Z,57.95
2023-03-22T12:41:47.965Z,57.98
2023-03-22T12:45:04.202Z,58.08
2023-03-22T12:48:18.915Z,58.03
2023-03-22T12:51:20.816Z,57.93
2023-03-22T12:54:25.356Z,58.03
2023-03-22T12:57:27.292Z,58.17
2023-03-22T13:00:38.279Z,58.22
2023-03-22T13:03:47.199Z,58.21
2023-03-22T13:07:07.994Z,58.33
2023-03-22T13:10:31.768Z,58.40
2023-03-22T13:13:41.719Z,58.18
2023-03-22T13:16:52.955Z,58.42
2023-03-22T13:20:07.945Z,58.43
2023-03-22T13:23:24.459Z,58.56
2023-03-22T13:26:45.947Z,58.69
2023-03-22T13:29:53.958Z,58.49
2023-03-22T13:33:14.845Z,58.56
2023-03-22T13:36:25.461Z,58.51
2023-03-22T13:39:34.590Z,58.55
2023-03-22T13:42:39.069Z,58.77
2023-03-22T13:45:58.322Z,58.58
2023-03-22T13:49:01.028Z,58.65
2023-03-22T13:52:08.181Z,58.62
2023-03-22T13:55:46.787Z,58.66
2023-03-22T13:58:52.933Z,58.74
2023-03-22T14:01:57.413Z,58.60
2023-03-22T14:05:07.903Z,58.69
2023-03-22T14:08:20.362Z,58.57
2023-03-22T14:11:45.962Z,58.73
2023-03-22T14:14:54.980Z,58.60
2023-03-22T14:18:00.682Z,58.83
2023-03-22T14:21:09.144Z,58.58
